This is the latest recevied weather packets stored in our database for station/object K7GFH-13. If no packets are shown the sender has not sent any weather packets the latest 10 day(s).
| Time | Temp. | Humidity | Pressure | Rain* | Wind** | Luminosity | Snow |
|---|---|---|---|---|---|---|---|
| 1778182252 | 16.11° C | 62% | 1021.6 hPa | 0 mm | - | 720 W/m² | - |
| 1778181352 | 16.67° C | 60% | 1021.6 hPa | 0 mm | - | 711 W/m² | - |
| 1778180451 | 15° C | 64% | 1021.8 hPa | 0 mm | - | 699 W/m² | - |
| 1778179549 | 15° C | 64% | 1022 hPa | 0 mm | - | 691 W/m² | - |
| 1778178646 | 13.89° C | 66% | 1022.1 hPa | 0 mm | - | 672 W/m² | - |
| 1778177741 | 14.44° C | 66% | 1022.1 hPa | 0 mm | - | 645 W/m² | - |
| 1778176836 | 13.89° C | 68% | 1022.2 hPa | 0 mm | - | 229 W/m² | - |
| 1778175933 | 13.33° C | 69% | 1022.4 hPa | 0 mm | - | 628 W/m² | - |
| 1778175031 | 13.89° C | 68% | 1022.6 hPa | 0 mm | - | 628 W/m² | - |
| 1778174131 | 13.33° C | 68% | 1022.5 hPa | 0 mm | - | 543 W/m² | - |
| 1778173228 | 12.78° C | 70% | 1022.6 hPa | 0 mm | - | 517 W/m² | - |
| 1778172322 | 11.67° C | 73% | 1022.6 hPa | 0 mm | - | 471 W/m² | - |
| 1778171421 | 11.67° C | 72% | 1022.6 hPa | 0 mm | - | 432 W/m² | - |
| 1778170520 | 11.67° C | 74% | 1022.6 hPa | 0 mm | - | 344 W/m² | - |
| 1778169615 | 11.11° C | 76% | 1022.6 hPa | 0 mm | - | 340 W/m² | - |
| 1778168710 | 10.56° C | 76% | 1022.5 hPa | 0 mm | - | 181 W/m² | - |
| 1778167806 | 10.56° C | 77% | 1022.6 hPa | 0 mm | - | 278 W/m² | - |
| 1778166907 | 10° C | 78% | 1022.6 hPa | 0 mm | - | 169 W/m² | - |
| 1778166003 | 10° C | 78% | 1022.7 hPa | 0 mm | - | 129 W/m² | - |
| 1778165099 | 10° C | 79% | 1022.6 hPa | 0 mm | - | 96 W/m² | - |
| 1778164196 | 10° C | 79% | 1022.6 hPa | 0 mm | - | 85 W/m² | - |
| 1778163290 | 9.44° C | 79% | 1022.5 hPa | 0 mm | - | 55 W/m² | - |
| 1778162388 | 9.44° C | 79% | 1022.5 hPa | 0 mm | - | 20 W/m² | - |
| 1778161484 | 9.44° C | 78% | 1022.4 hPa | 0 mm | - | 23 W/m² | - |
| 1778160581 | 10° C | 78% | 1022.2 hPa | 0 mm | - | 20 W/m² | - |
* Rain latest hour (hover to see other rain measurements)
** Current wind speed in m/s (hover to see current wind gust speed)